Time;durP1;ratioP1;P1;durP2;ratioP2;P2;SDS_P1;SDS_P2;PMS_P1;PMS_P2;Temp;Humidity;BMP_temperature;BMP_pressure;BME280_temperature;BME280_humidity;BME280_pressure;Samples;Min_cycle;Max_cycle;Signal;HPM_P1;HPM_P2
2022/08/26 00:01:30;;;;;;;59.67;43.03;;;25.00;61.90;;;;;;4986569;28;20038;-73
2022/08/26 00:03:57;;;;;;;66.40;46.13;;;24.90;61.70;;;;;;4987339;28;20551;-73
2022/08/26 00:06:23;;;;;;;65.93;46.80;;;24.80;61.60;;;;;;4988071;28;20049;-74
2022/08/26 00:08:50;;;;;;;65.40;43.90;;;24.80;61.70;;;;;;4986751;28;20054;-74
2022/08/26 00:11:17;;;;;;;73.07;46.30;;;24.70;62.00;;;;;;4986662;28;20034;-74
2022/08/26 00:13:43;;;;;;;74.68;51.22;;;24.60;62.50;;;;;;4978361;28;20512;-74
2022/08/26 00:16:09;;;;;;;72.43;49.08;;;24.70;61.00;;;;;;4988382;28;20061;-73
2022/08/26 00:18:37;;;;;;;75.57;50.40;;;24.70;61.30;;;;;;5001809;28;20420;-74
2022/08/26 00:21:04;;;;;;;55.63;38.67;;;24.70;61.00;;;;;;4987348;28;20035;-74
2022/08/26 00:23:30;;;;;;;53.03;37.20;;;24.60;63.80;;;;;;4986751;28;20054;-74
2022/08/26 00:25:56;;;;;;;51.67;39.15;;;24.50;64.50;;;;;;4987672;28;20495;-74
2022/08/26 00:28:22;;;;;;;58.42;41.67;;;24.40;64.80;;;;;;4986725;28;20400;-74
2022/08/26 00:30:48;;;;;;;57.80;43.70;;;24.30;64.20;;;;;;4987479;28;20034;-74
2022/08/26 00:33:19;;;;;;;57.75;40.17;;;24.30;63.50;;;;;;5002484;28;20298;-74
2022/08/26 00:35:46;;;;;;;57.38;37.38;;;24.40;64.60;;;;;;5002081;28;20038;-74
2022/08/26 00:38:12;;;;;;;54.70;39.47;;;24.20;65.70;;;;;;4969689;28;20038;-74
2022/08/26 00:40:48;;;;;;;66.53;46.67;;;24.20;65.70;;;;;;4981884;28;20116;-74
2022/08/26 00:43:15;;;;;;;67.47;46.28;;;24.10;64.80;;;;;;4986918;28;20043;-73
2022/08/26 00:45:48;;;;;;;53.42;40.25;;;24.20;65.20;;;;;;4986419;28;20086;-74
2022/08/26 00:48:18;;;;;;;62.45;44.58;;;24.10;65.20;;;;;;4986924;28;20042;-74
2022/08/26 00:50:52;;;;;;;67.82;49.17;;;24.30;64.10;;;;;;4986145;28;20054;-74
2022/08/26 00:53:22;;;;;;;74.40;51.05;;;24.40;62.90;;;;;;4987471;28;20123;-74
2022/08/26 00:56:08;;;;;;;60.95;41.78;;;24.30;63.00;;;;;;5001748;28;20045;-74
2022/08/26 00:58:36;;;;;;;74.28;50.17;;;24.20;65.00;;;;;;4985709;28;20042;-73
2022/08/26 01:01:04;;;;;;;80.07;53.80;;;24.20;64.50;;;;;;5001531;28;21102;-74
2022/08/26 01:03:32;;;;;;;73.85;50.90;;;24.20;63.10;;;;;;4984510;28;20057;-74
2022/08/26 01:06:00;;;;;;;72.43;51.50;;;24.20;63.60;;;;;;4986566;28;20418;-73
2022/08/26 01:08:27;;;;;;;83.47;56.33;;;24.20;63.90;;;;;;4987088;28;20596;-73
2022/08/26 01:10:56;;;;;;;71.03;49.22;;;24.20;62.70;;;;;;4986662;28;20077;-73
2022/08/26 01:13:22;;;;;;;55.83;42.58;;;24.10;63.90;;;;;;4987174;28;20298;-73
2022/08/26 01:15:54;;;;;;;67.40;47.33;;;24.10;65.80;;;;;;4981828;28;20069;-73
2022/08/26 01:18:20;;;;;;;65.63;44.55;;;24.10;65.10;;;;;;4985835;28;20042;-73
2022/08/26 01:21:10;;;;;;;59.75;43.67;;;24.10;65.70;;;;;;5001692;28;20579;-73
2022/08/26 01:23:43;;;;;;;68.22;48.60;;;24.00;66.10;;;;;;4980031;28;20180;-73
2022/08/26 01:26:28;;;;;;;58.83;41.40;;;23.90;65.00;;;;;;4986235;28;20512;-73
2022/08/26 01:28:58;;;;;;;68.03;46.90;;;23.90;67.00;;;;;;4985278;28;20043;-73
2022/08/26 01:31:29;;;;;;;65.00;46.08;;;23.80;66.10;;;;;;5001545;28;20038;-73
2022/08/26 01:34:26;;;;;;;58.85;43.03;;;23.90;66.30;;;;;;4985292;28;20034;-73
2022/08/26 01:37:06;;;;;;;58.55;42.50;;;23.80;67.10;;;;;;4974255;28;20046;-73
2022/08/26 01:39:34;;;;;;;54.28;39.90;;;23.80;67.90;;;;;;4987101;28;20590;-74
2022/08/26 01:42:02;;;;;;;54.83;42.60;;;23.70;68.40;;;;;;4947365;28;20070;-73
2022/08/26 01:44:35;;;;;;;54.13;41.40;;;23.70;68.70;;;;;;4985939;28;20035;-74
2022/08/26 01:47:01;;;;;;;54.40;41.85;;;23.60;69.00;;;;;;4984460;28;20031;-73
2022/08/26 01:49:27;;;;;;;63.53;45.08;;;23.50;69.20;;;;;;4985339;28;20080;-73
2022/08/26 01:51:55;;;;;;;61.30;45.25;;;23.40;69.50;;;;;;4984962;28;20061;-74
2022/08/26 01:54:23;;;;;;;64.95;45.85;;;23.40;69.70;;;;;;5002733;28;20034;-73
2022/08/26 01:56:51;;;;;;;63.00;44.88;;;23.30;69.50;;;;;;4985448;28;20038;-74
2022/08/26 01:59:19;;;;;;;68.07;45.38;;;23.30;69.50;;;;;;4986142;28;20615;-72
2022/08/26 02:01:46;;;;;;;61.42;45.83;;;23.20;69.80;;;;;;5000252;28;20026;-74
2022/08/26 02:04:27;;;;;;;59.30;45.25;;;23.20;70.20;;;;;;4984929;28;20035;-73
2022/08/26 02:06:55;;;;;;;64.15;46.50;;;23.20;70.50;;;;;;4982465;28;20370;-72
2022/08/26 02:09:23;;;;;;;61.17;46.67;;;23.20;70.10;;;;;;4986321;28;20034;-73
2022/08/26 02:11:50;;;;;;;73.03;51.63;;;23.10;70.40;;;;;;4985655;28;20042;-74
2022/08/26 02:14:25;;;;;;;73.35;52.95;;;23.20;69.60;;;;;;4985692;28;20038;-73
2022/08/26 02:16:52;;;;;;;79.68;57.42;;;23.20;68.80;;;;;;4985611;28;20074;-73
2022/08/26 02:19:22;;;;;;;80.70;54.88;;;23.20;68.00;;;;;;4984081;28;20631;-73
2022/08/26 02:21:50;;;;;;;72.13;51.20;;;23.20;68.40;;;;;;4985690;28;20045;-73
2022/08/26 02:24:21;;;;;;;68.63;50.33;;;23.20;69.30;;;;;;4986054;28;20089;-72
2022/08/26 02:26:48;;;;;;;80.00;57.60;;;23.20;69.50;;;;;;4968048;28;20125;-72
2022/08/26 02:29:26;;;;;;;67.97;50.30;;;23.20;68.90;;;;;;4984373;28;20038;-74
2022/08/26 02:31:54;;;;;;;61.78;46.67;;;23.10;69.50;;;;;;4984642;28;20607;-73
2022/08/26 02:34:25;;;;;;;64.53;48.80;;;23.00;70.50;;;;;;5002273;28;20121;-73
2022/08/26 02:36:51;;;;;;;84.22;59.95;;;23.00;70.30;;;;;;4984758;28;20460;-73
2022/08/26 02:39:17;;;;;;;84.50;58.42;;;23.00;68.40;;;;;;4985987;28;20049;-73
2022/08/26 02:41:44;;;;;;;82.80;57.35;;;23.00;67.80;;;;;;4986122;28;20049;-73
2022/08/26 02:44:10;;;;;;;85.70;58.42;;;23.10;68.30;;;;;;4983867;28;20429;-73
2022/08/26 02:46:37;;;;;;;98.15;61.17;;;23.10;68.50;;;;;;5000216;28;20031;-73
2022/08/26 02:49:03;;;;;;;91.75;62.65;;;23.10;68.30;;;;;;5000039;28;20104;-73
2022/08/26 02:51:30;;;;;;;63.97;48.63;;;23.10;67.70;;;;;;4985940;28;20104;-73
2022/08/26 02:53:56;;;;;;;66.63;49.10;;;23.10;70.30;;;;;;4984584;28;20581;-74
2022/08/26 02:56:22;;;;;;;68.30;50.80;;;23.00;70.70;;;;;;4985362;28;20049;-73
2022/08/26 02:58:49;;;;;;;68.65;51.33;;;22.90;70.60;;;;;;4985282;28;20034;-73
2022/08/26 03:01:24;;;;;;;79.22;55.17;;;22.90;70.70;;;;;;4991428;28;20035;-73
2022/08/26 03:03:50;;;;;;;;;;;22.90;69.90;;;;;;5001482;28;20030;-75
2022/08/26 03:06:16;;;;;;;85.43;60.08;;;22.90;69.70;;;;;;4986041;28;20107;-76
2022/08/26 03:08:42;;;;;;;88.75;60.35;;;23.00;69.10;;;;;;4984830;28;20229;-75
2022/08/26 03:11:09;;;;;;;86.50;59.38;;;23.00;68.70;;;;;;4991715;28;20042;-75
2022/08/26 03:13:36;;;;;;;94.90;63.08;;;23.10;68.80;;;;;;4981856;28;20062;-75
2022/08/26 03:16:03;;;;;;;88.93;62.67;;;23.10;68.60;;;;;;4989554;28;20142;-75
2022/08/26 03:18:29;;;;;;;96.00;64.70;;;23.00;68.40;;;;;;4967456;28;20045;-75
2022/08/26 03:20:55;;;;;;;89.97;61.08;;;23.00;68.40;;;;;;4966580;28;20041;-74
2022/08/26 03:23:21;;;;;;;86.13;58.95;;;23.00;68.90;;;;;;4988799;28;20034;-74
2022/08/26 03:25:52;;;;;;;87.32;60.55;;;23.10;68.60;;;;;;4988125;28;20045;-73
2022/08/26 03:28:19;;;;;;;98.05;63.47;;;23.10;68.60;;;;;;4989035;28;20034;-74
2022/08/26 03:30:46;;;;;;;95.93;63.35;;;23.20;67.60;;;;;;4988317;28;20030;-74
2022/08/26 03:33:12;;;;;;;91.25;61.88;;;23.30;67.00;;;;;;4987121;28;20050;-74
2022/08/26 03:35:41;;;;;;;93.88;63.22;;;23.30;66.50;;;;;;4987289;28;20117;-75
2022/08/26 03:38:07;;;;;;;95.13;62.95;;;23.30;66.50;;;;;;4984691;28;20533;-75
2022/08/26 03:40:35;;;;;;;102.28;64.57;;;23.40;67.10;;;;;;4986367;28;20027;-75
2022/08/26 03:43:04;;;;;;;94.30;63.28;;;23.50;66.70;;;;;;4988287;28;20034;-76
2022/08/26 03:45:30;;;;;;;95.60;63.67;;;23.50;66.60;;;;;;4987354;28;20157;-74
2022/08/26 03:47:57;;;;;;;102.60;64.35;;;23.50;66.60;;;;;;4986577;28;20030;-74
2022/08/26 03:50:24;;;;;;;102.43;65.30;;;23.60;66.50;;;;;;4987384;28;20459;-75
2022/08/26 03:52:52;;;;;;;91.47;64.32;;;23.60;66.20;;;;;;4970097;28;20045;-76
2022/08/26 03:55:23;;;;;;;98.53;66.32;;;23.70;66.10;;;;;;4986881;28;20034;-75
2022/08/26 03:57:51;;;;;;;99.80;64.97;;;23.70;66.10;;;;;;4982263;28;20065;-77
2022/08/26 04:00:18;;;;;;;94.20;64.82;;;23.70;66.10;;;;;;4987904;28;20041;-76
2022/08/26 04:02:47;;;;;;;94.43;64.75;;;23.70;66.10;;;;;;4988279;28;20038;-76
2022/08/26 04:05:16;;;;;;;100.55;63.85;;;23.70;66.40;;;;;;5003972;28;20030;-76
2022/08/26 04:07:42;;;;;;;90.40;62.92;;;23.70;66.40;;;;;;4986734;28;20038;-76
2022/08/26 04:10:11;;;;;;;88.82;62.35;;;23.80;66.50;;;;;;4987771;28;20524;-74
2022/08/26 04:12:38;;;;;;;96.28;63.60;;;23.80;66.40;;;;;;4989236;28;20022;-74
2022/08/26 04:15:09;;;;;;;96.15;61.63;;;23.80;66.40;;;;;;4988453;28;20572;-74
2022/08/26 04:17:37;;;;;;;86.63;58.83;;;23.80;66.10;;;;;;4987599;28;20034;-74
2022/08/26 04:20:06;;;;;;;92.10;60.17;;;23.90;65.90;;;;;;4988403;28;20531;-74
2022/08/26 04:22:32;;;;;;;85.50;56.88;;;24.10;65.90;;;;;;4988087;28;20038;-74
2022/08/26 04:24:58;;;;;;;90.60;57.92;;;24.10;65.70;;;;;;4987878;28;20034;-73
2022/08/26 04:27:25;;;;;;;81.68;55.85;;;24.20;65.30;;;;;;4987622;28;20041;-74
2022/08/26 04:29:51;;;;;;;88.95;56.90;;;24.20;65.20;;;;;;4987818;28;20042;-74
2022/08/26 04:32:17;;;;;;;82.55;57.15;;;24.20;64.90;;;;;;4988314;28;20031;-73
2022/08/26 04:34:43;;;;;;;88.10;56.08;;;24.20;65.30;;;;;;4983333;28;20031;-74
2022/08/26 04:37:09;;;;;;;84.80;54.10;;;24.30;65.40;;;;;;4987463;28;20039;-73
2022/08/26 04:39:35;;;;;;;78.43;53.85;;;24.50;65.30;;;;;;4982469;28;20398;-72
2022/08/26 04:42:01;;;;;;;79.07;52.35;;;24.60;64.90;;;;;;5001991;28;20101;-75
2022/08/26 04:44:28;;;;;;;77.78;51.25;;;24.90;64.00;;;;;;4987964;28;20074;-77
2022/08/26 04:46:55;;;;;;;75.28;49.88;;;25.20;63.50;;;;;;4987712;28;20037;-76
2022/08/26 04:49:21;;;;;;;81.25;49.55;;;25.40;62.30;;;;;;4987735;28;20041;-75
2022/08/26 04:51:47;;;;;;;76.72;48.00;;;25.50;61.80;;;;;;4986705;28;20034;-73
2022/08/26 04:54:14;;;;;;;63.88;45.15;;;25.70;61.00;;;;;;4968752;28;20557;-72
2022/08/26 04:56:42;;;;;;;65.07;42.55;;;25.90;60.50;;;;;;4966483;28;20031;-72
2022/08/26 04:59:14;;;;;;;58.17;41.38;;;26.10;60.20;;;;;;4966356;28;20129;-73
2022/08/26 05:01:45;;;;;;;64.82;42.03;;;26.30;59.60;;;;;;4967700;28;20061;-73
2022/08/26 05:04:11;;;;;;;66.93;40.25;;;26.50;58.70;;;;;;4982304;28;20046;-73
2022/08/26 05:06:37;;;;;;;60.97;39.40;;;26.60;58.70;;;;;;4968754;28;20035;-73
2022/08/26 05:09:03;;;;;;;53.58;37.65;;;26.80;58.20;;;;;;4963481;28;20038;-75
2022/08/26 05:11:29;;;;;;;59.53;36.15;;;26.90;58.10;;;;;;4968049;28;20053;-75
2022/08/26 05:13:55;;;;;;;53.28;36.40;;;27.00;57.90;;;;;;4963760;28;20039;-73
2022/08/26 05:16:21;;;;;;;55.42;35.90;;;27.00;57.60;;;;;;4966485;28;20062;-74
2022/08/26 05:18:47;;;;;;;50.78;34.38;;;27.10;57.90;;;;;;4967548;28;20104;-72
2022/08/26 05:21:21;;;;;;;49.65;35.22;;;27.20;58.20;;;;;;4968470;28;20034;-75
2022/08/26 05:23:50;;;;;;;50.10;34.92;;;27.30;57.70;;;;;;4981742;28;20039;-74
2022/08/26 05:26:18;;;;;;;47.17;33.17;;;27.40;57.60;;;;;;4967392;28;20050;-75
2022/08/26 05:28:44;;;;;;;47.72;34.60;;;27.50;57.00;;;;;;4966168;28;20100;-75
2022/08/26 05:31:13;;;;;;;46.05;33.60;;;27.60;57.20;;;;;;4967518;28;20050;-75
2022/08/26 05:33:40;;;;;;;45.08;33.38;;;27.80;57.40;;;;;;4967431;28;20045;-75
2022/08/26 05:36:08;;;;;;;45.75;32.88;;;27.90;57.20;;;;;;4967457;28;20058;-75
2022/08/26 05:38:34;;;;;;;42.75;33.00;;;28.00;57.00;;;;;;4967485;28;20460;-73
2022/08/26 05:41:00;;;;;;;42.50;32.53;;;28.10;56.90;;;;;;4966894;28;20034;-75
2022/08/26 05:43:26;;;;;;;37.90;30.42;;;28.20;57.10;;;;;;4961293;28;20082;-75
2022/08/26 05:45:52;;;;;;;40.40;31.02;;;28.30;57.10;;;;;;4982247;28;20398;-75
2022/08/26 05:48:20;;;;;;;43.20;33.03;;;28.40;57.00;;;;;;4967968;28;20065;-74
2022/08/26 05:50:49;;;;;;;40.83;31.98;;;28.50;56.90;;;;;;4967163;28;20529;-75
2022/08/26 05:53:18;;;;;;;41.95;30.92;;;28.60;56.40;;;;;;4967035;28;20085;-75
2022/08/26 05:55:47;;;;;;;40.38;30.45;;;28.70;56.10;;;;;;4949999;28;20034;-75
2022/08/26 05:58:15;;;;;;;37.75;30.02;;;28.80;56.20;;;;;;4967553;28;20035;-74
2022/08/26 06:00:41;;;;;;;43.08;29.15;;;28.90;56.00;;;;;;4967012;28;20026;-75
2022/08/26 06:03:07;;;;;;;46.75;29.80;;;29.00;55.80;;;;;;4966382;28;20142;-76
2022/08/26 06:05:40;;;;;;;43.33;28.67;;;29.00;55.40;;;;;;4962094;28;20043;-75
2022/08/26 06:08:13;;;;;;;39.30;27.95;;;29.10;55.60;;;;;;4967656;28;20035;-74
2022/08/26 06:11:01;;;;;;;42.35;29.10;;;29.10;55.60;;;;;;4973476;28;20039;-76
2022/08/26 06:13:28;;;;;;;39.75;27.73;;;29.30;55.70;;;;;;4965400;28;20053;-75
2022/08/26 06:15:56;;;;;;;38.67;26.23;;;29.30;55.70;;;;;;4966837;28;20396;-75
2022/08/26 06:18:33;;;;;;;37.55;26.02;;;29.40;55.70;;;;;;4967257;28;20421;-76
2022/08/26 06:21:01;;;;;;;38.45;25.58;;;29.40;55.50;;;;;;4967107;28;20564;-76
2022/08/26 06:26:16;;;;;;;37.95;24.85;;;29.60;55.30;;;;;;4967341;28;20114;-75
2022/08/26 06:28:43;;;;;;;35.85;23.30;;;29.70;55.10;;;;;;4966520;28;20039;-76
2022/08/26 06:31:09;;;;;;;32.67;22.98;;;29.70;55.00;;;;;;4966425;28;20038;-76
2022/08/26 06:33:35;;;;;;;39.67;24.38;;;29.80;54.80;;;;;;4967300;28;20035;-75
2022/08/26 06:36:01;;;;;;;36.47;23.40;;;29.80;54.90;;;;;;4967011;28;20049;-76
2022/08/26 06:38:27;;;;;;;33.53;22.90;;;29.80;54.70;;;;;;4967018;28;20038;-76
2022/08/26 06:40:53;;;;;;;30.98;22.98;;;29.90;54.80;;;;;;4966332;28;20031;-76
2022/08/26 06:43:22;;;;;;;30.33;20.33;;;29.90;54.70;;;;;;4966686;28;20037;-76
2022/08/26 06:45:49;;;;;;;33.03;20.92;;;29.90;54.60;;;;;;4960619;28;20057;-78
2022/08/26 06:48:18;;;;;;;30.02;20.75;;;30.00;54.50;;;;;;4984083;28;20112;-78
2022/08/26 06:50:45;;;;;;;34.47;19.92;;;30.00;54.50;;;;;;4953843;28;20027;-79
2022/08/26 06:53:12;;;;;;;34.22;18.75;;;30.00;54.50;;;;;;4953228;28;20041;-78
2022/08/26 06:55:45;;;;;;;26.30;18.38;;;30.10;53.70;;;;;;4971411;28;20058;-78
2022/08/26 06:58:13;;;;;;;26.02;18.17;;;30.20;53.00;;;;;;4970213;28;20038;-79
2022/08/26 07:00:39;;;;;;;23.00;16.77;;;30.20;53.40;;;;;;4970482;28;20022;-78
2022/08/26 07:03:06;;;;;;;25.38;17.60;;;30.20;53.30;;;;;;4969569;28;20027;-79
2022/08/26 07:05:33;;;;;;;25.88;16.55;;;30.30;53.10;;;;;;4952232;28;20047;-78
2022/08/26 07:08:00;;;;;;;22.30;13.68;;;30.30;52.70;;;;;;4970521;28;20039;-79
2022/08/26 07:10:26;;;;;;;25.83;14.73;;;30.30;50.10;;;;;;4968769;28;20058;-76
2022/08/26 07:12:52;;;;;;;32.38;14.65;;;30.40;50.60;;;;;;4970048;28;20461;-77
2022/08/26 07:15:19;;;;;;;28.73;13.15;;;30.40;50.70;;;;;;4969930;28;20034;-79
2022/08/26 07:17:45;;;;;;;23.83;13.15;;;30.40;49.90;;;;;;4969581;28;20032;-76
2022/08/26 07:20:11;;;;;;;28.17;13.73;;;30.50;49.80;;;;;;4969770;28;20051;-76
2022/08/26 07:22:38;;;;;;;27.58;12.10;;;30.40;50.60;;;;;;4968493;28;20505;-76
2022/08/26 07:25:09;;;;;;;24.70;13.68;;;30.40;50.70;;;;;;4969046;28;20061;-76
2022/08/26 07:27:37;;;;;;;23.23;12.93;;;30.50;51.00;;;;;;4970470;28;20035;-75
2022/08/26 07:30:05;;;;;;;27.25;12.57;;;30.50;51.20;;;;;;4969731;28;20031;-76
2022/08/26 07:32:31;;;;;;;28.65;13.48;;;30.50;51.50;;;;;;4968936;28;20035;-76
2022/08/26 07:34:57;;;;;;;18.48;12.63;;;30.50;51.50;;;;;;4950841;28;20062;-77
2022/08/26 07:37:24;;;;;;;19.73;12.27;;;30.50;51.60;;;;;;4968828;28;20035;-77
2022/08/26 07:39:50;;;;;;;21.75;12.05;;;30.50;51.70;;;;;;4969769;28;20031;-78
2022/08/26 07:42:17;;;;;;;19.45;12.15;;;30.50;51.10;;;;;;4968685;28;20086;-78
2022/08/26 07:44:44;;;;;;;21.23;12.45;;;30.50;51.40;;;;;;4970034;28;20055;-79
2022/08/26 07:47:10;;;;;;;15.05;11.50;;;30.50;51.50;;;;;;4967625;28;20038;-76
2022/08/26 07:49:37;;;;;;;15.07;11.30;;;30.60;51.40;;;;;;4969877;28;20035;-77
2022/08/26 07:52:04;;;;;;;18.98;12.45;;;30.60;51.30;;;;;;4968176;28;20104;-78
2022/08/26 07:54:30;;;;;;;17.42;12.07;;;30.60;51.30;;;;;;4969724;28;20023;-77
2022/08/26 07:56:56;;;;;;;16.80;11.40;;;30.60;50.50;;;;;;4969683;28;20280;-78
2022/08/26 07:59:23;;;;;;;15.70;10.68;;;30.50;50.70;;;;;;4963452;28;20066;-77
2022/08/26 08:01:49;;;;;;;13.20;10.10;;;30.50;48.60;;;;;;4948634;28;20696;-78
2022/08/26 08:04:17;;;;;;;15.98;11.05;;;30.60;48.60;;;;;;4969109;28;20034;-77
2022/08/26 08:06:44;;;;;;;12.18;10.23;;;30.50;49.40;;;;;;4985097;28;20038;-79
2022/08/26 08:09:13;;;;;;;12.90;10.20;;;30.40;48.80;;;;;;4984135;28;20046;-77
2022/08/26 08:11:40;;;;;;;13.50;9.77;;;30.50;49.20;;;;;;4951677;28;20050;-77
2022/08/26 08:14:06;;;;;;;10.80;9.25;;;30.40;48.10;;;;;;4967602;28;20042;-76
2022/08/26 08:16:33;;;;;;;11.02;9.18;;;30.40;46.70;;;;;;4967753;28;20039;-77
2022/08/26 08:18:59;;;;;;;12.10;9.63;;;30.30;46.80;;;;;;4967331;28;20030;-76
2022/08/26 08:21:26;;;;;;;10.38;9.00;;;30.30;46.80;;;;;;4984596;28;20517;-76
2022/08/26 08:23:53;;;;;;;13.70;8.80;;;30.30;47.10;;;;;;4966347;28;20538;-76
2022/08/26 08:26:20;;;;;;;14.07;8.93;;;30.30;47.00;;;;;;4967737;28;20042;-76
2022/08/26 08:28:46;;;;;;;9.45;8.40;;;30.30;45.50;;;;;;4951334;28;20078;-77
2022/08/26 08:31:30;;;;;;;10.63;8.63;;;30.30;45.70;;;;;;4967271;28;20086;-79
2022/08/26 08:33:56;;;;;;;10.03;8.87;;;30.30;45.70;;;;;;4969055;28;20031;-78
2022/08/26 08:36:22;;;;;;;12.52;8.93;;;30.30;46.20;;;;;;4971727;28;20476;-81
2022/08/26 08:38:48;;;;;;;13.95;9.07;;;30.30;46.50;;;;;;4963922;28;20096;-77
2022/08/26 08:41:45;;;;;;;11.45;8.98;;;30.30;46.30;;;;;;4969430;28;20081;-79
2022/08/26 08:44:19;;;;;;;10.10;9.10;;;30.30;46.30;;;;;;4959308;28;20030;-76
2022/08/26 08:47:09;;;;;;;10.32;9.23;;;30.30;46.50;;;;;;4971344;28;20510;-76
2022/08/26 08:49:35;;;;;;;12.30;9.07;;;30.10;46.60;;;;;;4968247;28;20039;-75
2022/08/26 08:52:09;;;;;;;9.93;8.93;;;30.20;46.30;;;;;;4967730;28;20077;-75
2022/08/26 08:54:35;;;;;;;16.43;9.00;;;30.20;46.50;;;;;;4967610;28;20675;-76
2022/08/26 08:57:20;;;;;;;11.52;8.82;;;30.20;47.10;;;;;;4967773;28;20293;-77
2022/08/26 09:00:00;;;;;;;17.73;8.38;;;30.20;46.50;;;;;;4967702;28;20031;-73
2022/08/26 09:02:41;;;;;;;12.57;8.32;;;30.30;43.30;;;;;;4967829;28;20132;-73
2022/08/26 09:05:19;;;;;;;12.25;8.60;;;30.30;44.20;;;;;;4968205;28;20030;-73
2022/08/26 09:07:54;;;;;;;8.25;7.45;;;30.30;43.40;;;;;;4974477;28;20034;-73
2022/08/26 09:10:37;;;;;;;;;;;30.40;42.70;;;;;;4987844;28;20038;-73
2022/08/26 09:13:08;;;;;;;10.38;7.70;;;30.30;42.80;;;;;;4987037;28;20273;-73
2022/08/26 09:15:39;;;;;;;8.90;8.00;;;30.30;43.10;;;;;;4986772;28;20026;-74
2022/08/26 09:18:19;;;;;;;13.45;7.78;;;30.30;42.50;;;;;;4982547;28;20121;-75
2022/08/26 09:20:57;;;;;;;9.45;7.50;;;30.30;42.90;;;;;;5002450;28;20046;-73
2022/08/26 09:23:23;;;;;;;8.05;7.35;;;30.20;42.70;;;;;;4964333;28;20034;-74
2022/08/26 09:25:57;;;;;;;14.13;7.97;;;30.30;43.00;;;;;;4986586;28;20501;-74
2022/08/26 09:28:25;;;;;;;9.07;8.00;;;30.20;43.10;;;;;;4985301;28;20089;-74
2022/08/26 09:31:21;;;;;;;8.20;7.35;;;30.30;43.70;;;;;;4986224;28;20447;-74
2022/08/26 09:33:47;;;;;;;10.70;7.70;;;30.30;43.60;;;;;;4973802;28;20026;-74
2022/08/26 09:36:32;;;;;;;9.05;7.47;;;30.30;43.90;;;;;;4987076;28;20034;-74
2022/08/26 09:38:58;;;;;;;9.43;8.05;;;30.30;43.60;;;;;;4984521;28;20054;-74
2022/08/26 09:41:31;;;;;;;7.97;7.18;;;30.30;44.00;;;;;;4985081;28;20448;-74
2022/08/26 09:44:07;;;;;;;8.90;7.88;;;30.30;44.30;;;;;;4985210;28;20513;-74
2022/08/26 09:46:34;;;;;;;10.32;9.05;;;30.30;44.50;;;;;;4986275;28;20085;-74
2022/08/26 09:49:39;;;;;;;14.30;9.27;;;30.30;43.20;;;;;;4984515;28;20041;-74
2022/08/26 09:52:20;;;;;;;9.55;8.48;;;30.30;43.10;;;;;;4915872;29;20047;-73
2022/08/26 09:55:02;;;;;;;9.60;8.10;;;30.30;44.00;;;;;;4900464;29;20525;-73
2022/08/26 09:57:34;;;;;;;8.45;7.70;;;30.40;43.40;;;;;;4907584;29;20523;-72
2022/08/26 10:00:00;;;;;;;9.55;8.68;;;30.30;41.00;;;;;;4915981;29;20573;-72
2022/08/26 10:02:40;;;;;;;8.55;7.55;;;30.30;42.20;;;;;;4915630;29;20066;-74
2022/08/26 10:05:14;;;;;;;9.27;8.38;;;30.30;42.60;;;;;;4904234;29;20042;-73
2022/08/26 10:07:50;;;;;;;9.52;8.27;;;30.30;42.60;;;;;;4895478;29;20346;-72
2022/08/26 10:10:19;;;;;;;9.20;8.32;;;30.30;41.90;;;;;;4915265;29;20079;-72
2022/08/26 10:13:02;;;;;;;8.80;8.00;;;30.30;42.00;;;;;;4915346;29;20028;-73
2022/08/26 10:15:34;;;;;;;9.52;8.60;;;30.30;42.40;;;;;;4916364;29;20047;-73
2022/08/26 10:18:11;;;;;;;9.38;8.45;;;30.30;43.40;;;;;;4915943;29;20108;-72
2022/08/26 10:20:48;;;;;;;9.95;8.65;;;30.30;43.40;;;;;;4900159;29;20528;-73
2022/08/26 10:23:21;;;;;;;10.85;8.68;;;30.30;43.90;;;;;;4961336;28;20509;-73
2022/08/26 10:25:56;;;;;;;11.60;9.05;;;30.30;43.20;;;;;;4985915;28;20156;-73
2022/08/26 10:28:37;;;;;;;;;;;30.30;43.60;;;;;;4986378;28;20053;-73
2022/08/26 10:31:38;;;;;;;10.25;9.07;;;30.30;42.70;;;;;;4983482;28;19914;-73
2022/08/26 10:34:04;;;;;;;13.18;8.60;;;30.30;42.60;;;;;;4909124;29;20032;-73
2022/08/26 10:36:49;;;;;;;12.18;9.43;;;30.30;42.50;;;;;;4925285;29;20044;-73
2022/08/26 10:39:30;;;;;;;12.00;9.35;;;30.30;41.60;;;;;;4909680;29;20052;-73
2022/08/26 10:42:03;;;;;;;13.18;9.32;;;30.30;41.90;;;;;;4909641;29;20028;-73
2022/08/26 10:44:35;;;;;;;10.25;8.93;;;30.30;42.20;;;;;;4925083;29;20040;-73
2022/08/26 10:47:36;;;;;;;10.45;9.00;;;30.30;42.50;;;;;;4925137;29;20059;-72
2022/08/26 10:50:03;;;;;;;9.57;8.35;;;30.30;44.10;;;;;;4909238;29;20313;-72
2022/08/26 10:52:29;;;;;;;10.95;8.80;;;30.30;41.80;;;;;;4909143;29;20498;-73
2022/08/26 10:55:21;;;;;;;13.93;7.95;;;30.40;41.10;;;;;;4909386;29;20198;-73
2022/08/26 10:58:03;;;;;;;8.50;7.68;;;30.50;40.00;;;;;;4908840;29;20574;-74
2022/08/26 11:03:26;;;;;;;;;;;30.40;39.10;;;;;;4924035;29;20044;-73
2022/08/26 11:06:17;;;;;;;11.73;8.40;;;30.30;40.80;;;;;;4916066;29;20280;-73
2022/08/26 11:08:46;;;;;;;10.73;8.18;;;30.20;41.00;;;;;;4931630;28;20078;-73
2022/08/26 11:11:35;;;;;;;8.82;8.02;;;30.20;40.50;;;;;;4999830;28;20061;-74
2022/08/26 11:14:04;;;;;;;9.63;8.20;;;30.30;41.70;;;;;;4957995;28;20046;-73
2022/08/26 11:16:51;;;;;;;8.30;7.47;;;30.20;40.90;;;;;;4979938;28;20157;-74
2022/08/26 11:19:39;;;;;;;8.02;7.32;;;30.20;41.10;;;;;;4984077;28;20042;-73
2022/08/26 11:22:24;;;;;;;8.77;7.65;;;30.10;41.40;;;;;;4984180;28;20084;-72
2022/08/26 11:24:56;;;;;;;8.25;7.28;;;30.20;40.20;;;;;;4984713;28;20101;-74
2022/08/26 11:27:24;;;;;;;10.20;7.38;;;30.20;40.20;;;;;;4985548;28;20128;-73
2022/08/26 11:30:29;;;;;;;9.45;7.18;;;30.20;40.20;;;;;;4985379;28;20066;-72
2022/08/26 11:32:57;;;;;;;8.85;6.70;;;30.20;39.80;;;;;;4981975;28;20088;-74
2022/08/26 11:35:35;;;;;;;8.57;7.68;;;30.20;40.50;;;;;;4987807;28;20031;-74
2022/08/26 11:38:11;;;;;;;8.93;7.22;;;30.20;40.50;;;;;;4988265;28;20039;-74
2022/08/26 11:40:38;;;;;;;8.32;7.35;;;30.20;41.60;;;;;;4983981;28;20042;-75
2022/08/26 11:43:13;;;;;;;7.78;7.10;;;30.20;41.50;;;;;;4987574;28;20038;-74
2022/08/26 11:45:46;;;;;;;10.98;7.28;;;30.20;40.70;;;;;;4981319;28;20519;-74
2022/08/26 11:48:29;;;;;;;8.70;6.25;;;30.20;39.90;;;;;;4987672;28;20045;-73
2022/08/26 11:51:01;;;;;;;7.82;6.88;;;30.20;38.50;;;;;;4988559;28;20039;-74
2022/08/26 11:53:29;;;;;;;10.10;6.90;;;30.30;38.70;;;;;;4987738;28;20050;-75
2022/08/26 11:55:57;;;;;;;8.25;6.80;;;30.30;39.10;;;;;;4988402;28;20042;-74
2022/08/26 11:58:26;;;;;;;10.93;7.07;;;30.20;39.60;;;;;;4987997;28;20038;-73
2022/08/26 12:01:07;;;;;;;7.80;7.10;;;30.20;38.50;;;;;;4987871;28;20520;-73
2022/08/26 12:03:35;;;;;;;8.25;6.55;;;30.20;38.10;;;;;;4987379;28;20089;-74
2022/08/26 12:06:02;;;;;;;8.23;6.35;;;30.20;38.60;;;;;;4988517;28;20089;-74
2022/08/26 12:08:31;;;;;;;8.60;7.03;;;30.20;38.30;;;;;;4970872;28;20498;-75
2022/08/26 12:11:07;;;;;;;9.85;6.47;;;30.20;39.60;;;;;;4987872;28;20109;-75
2022/08/26 12:13:35;;;;;;;7.18;6.47;;;30.10;38.80;;;;;;4987215;28;20034;-74
2022/08/26 12:16:02;;;;;;;7.50;6.40;;;30.10;39.10;;;;;;4987212;28;20041;-74
2022/08/26 12:18:30;;;;;;;10.02;6.78;;;30.10;39.10;;;;;;4987988;28;20048;-74
2022/08/26 12:21:11;;;;;;;10.38;6.63;;;30.10;40.10;;;;;;4988076;28;20030;-73
2022/08/26 12:23:46;;;;;;;7.63;6.65;;;30.10;39.20;;;;;;4987342;28;20077;-73
2022/08/26 12:26:24;;;;;;;6.93;6.32;;;30.20;39.30;;;;;;4987570;28;20538;-73
2022/08/26 12:28:53;;;;;;;7.18;6.47;;;30.10;39.20;;;;;;4993254;28;20137;-72
2022/08/26 12:31:30;;;;;;;8.68;6.40;;;30.10;39.50;;;;;;4987875;28;20046;-73
2022/08/26 12:33:58;;;;;;;7.75;6.95;;;30.10;39.00;;;;;;5003183;28;20505;-74
2022/08/26 12:36:44;;;;;;;8.32;6.95;;;30.10;38.90;;;;;;4986600;28;20382;-74
2022/08/26 12:39:13;;;;;;;8.90;6.70;;;30.10;39.50;;;;;;4987261;28;20043;-75
2022/08/26 12:41:50;;;;;;;8.40;6.90;;;30.10;39.00;;;;;;4983297;28;20058;-75
2022/08/26 12:44:45;;;;;;;10.65;6.90;;;30.10;40.80;;;;;;4987787;28;20034;-76
2022/08/26 12:47:30;;;;;;;10.02;6.88;;;30.10;40.40;;;;;;4969913;28;20034;-76
2022/08/26 12:50:07;;;;;;;8.88;7.13;;;30.00;40.20;;;;;;4988068;28;20034;-76
2022/08/26 12:53:03;;;;;;;8.18;7.25;;;30.00;41.50;;;;;;4962623;28;20035;-77
2022/08/26 12:55:38;;;;;;;9.43;7.40;;;30.00;40.60;;;;;;4953196;28;21427;-78
2022/08/26 12:58:22;;;;;;;;;;;30.00;41.00;;;;;;4986684;28;20049;-77